createdAt,value
2018-03-27T00:04:18.981Z,98323.16
2018-03-27T00:24:55.512Z,98305.86
2018-03-27T01:03:34.267Z,98309.27
2018-03-27T01:24:09.542Z,98314.25
2018-03-27T01:44:47.269Z,98290.50
2018-03-27T02:05:22.185Z,98268.98
2018-03-27T02:26:00.883Z,98271.30
2018-03-27T02:46:38.305Z,98259.65
2018-03-27T03:07:13.932Z,98248.09
2018-03-27T03:27:50.995Z,98244.34
2018-03-27T03:48:25.040Z,98236.95
2018-03-27T04:09:00.309Z,98229.53
2018-03-27T04:29:35.583Z,98221.52
2018-03-27T04:50:12.082Z,98210.17
2018-03-27T05:10:50.742Z,98211.49
2018-03-27T05:31:29.382Z,98209.50
2018-03-27T05:52:03.735Z,98210.59
2018-03-27T06:12:42.303Z,98213.56
2018-03-27T06:33:17.356Z,98199.79
2018-03-27T06:53:52.309Z,98187.05
2018-03-27T07:14:26.662Z,98177.56
2018-03-27T07:34:59.001Z,98156.51
2018-03-27T07:55:33.828Z,98149.51
2018-03-27T08:16:08.176Z,98129.11
2018-03-27T08:36:40.375Z,98103.37
2018-03-27T08:57:16.565Z,98078.89
2018-03-27T09:17:51.844Z,98047.68
2018-03-27T09:38:28.364Z,98029.99
2018-03-27T09:59:05.613Z,97993.52
2018-03-27T10:19:38.827Z,97975.47
2018-03-27T10:40:12.928Z,97945.64
2018-03-27T11:00:48.820Z,97941.19
2018-03-27T11:21:22.857Z,97911.97
2018-03-27T11:41:55.703Z,97895.42
2018-03-27T12:02:30.635Z,97861.67
2018-03-27T12:23:08.181Z,97821.94
2018-03-27T12:43:51.315Z,97837.77
2018-03-27T13:22:28.544Z,97766.91
2018-03-27T13:43:04.451Z,97736.52
2018-03-27T14:03:38.492Z,97752.02
2018-03-27T14:24:15.263Z,97710.14
2018-03-27T14:44:49.956Z,97686.91
2018-03-27T15:05:22.465Z,97651.49
2018-03-27T15:25:59.583Z,97613.91
2018-03-27T15:46:37.064Z,97579.75
2018-03-27T16:07:13.311Z,97583.46
2018-03-27T16:27:47.237Z,97577.31
2018-03-27T16:48:23.766Z,97560.83
2018-03-27T17:09:00.005Z,97518.61
2018-03-27T17:29:34.898Z,97518.13
2018-03-27T17:50:09.245Z,97509.31
2018-03-27T18:10:42.368Z,97507.02
2018-03-27T18:31:18.901Z,97485.84
2018-03-27T18:51:53.836Z,97477.95
2018-03-27T19:12:31.382Z,97477.14
2018-03-27T19:33:08.372Z,97455.49
2018-03-27T19:53:44.574Z,97429.24
2018-03-27T20:14:17.697Z,97414.00
2018-03-27T20:34:55.110Z,97380.06
2018-03-27T20:55:29.467Z,97390.06
2018-03-27T21:16:03.503Z,97373.35
2018-03-27T21:36:35.716Z,97358.69
2018-03-27T21:57:11.900Z,97346.68
2018-03-27T22:17:44.100Z,97340.34
2018-03-27T22:38:15.379Z,97322.78
2018-03-27T22:58:55.895Z,97332.67
2018-03-27T23:19:30.838Z,97336.58
2018-03-27T23:40:04.884Z,97334.23
